sensor_id;sensor_type;location;lat;lon;timestamp;pressure;altitude;pressure_sealevel;temperature;humidity
46087;BME280;31824;49.648;8.640;2023-06-26T00:02:14;100153.19;;;22.49;100.00
46087;BME280;31824;49.648;8.640;2023-06-26T00:05:24;100163.00;;;22.49;100.00
46087;BME280;31824;49.648;8.640;2023-06-26T00:08:30;100155.88;;;22.49;100.00
46087;BME280;31824;49.648;8.640;2023-06-26T00:12:19;100162.47;;;22.17;100.00
46087;BME280;31824;49.648;8.640;2023-06-26T00:15:50;100160.56;;;22.14;100.00
46087;BME280;31824;49.648;8.640;2023-06-26T00:18:57;100163.78;;;22.07;100.00
46087;BME280;31824;49.648;8.640;2023-06-26T00:22:11;100159.44;;;22.09;100.00
46087;BME280;31824;49.648;8.640;2023-06-26T00:25:16;100157.22;;;21.61;100.00
46087;BME280;31824;49.648;8.640;2023-06-26T00:28:23;100156.03;;;21.18;100.00
46087;BME280;31824;49.648;8.640;2023-06-26T00:31:27;100153.94;;;21.31;100.00
46087;BME280;31824;49.648;8.640;2023-06-26T00:35:20;100159.97;;;21.63;100.00
46087;BME280;31824;49.648;8.640;2023-06-26T00:38:33;100161.72;;;21.44;100.00
46087;BME280;31824;49.648;8.640;2023-06-26T00:41:42;100160.78;;;21.06;100.00
46087;BME280;31824;49.648;8.640;2023-06-26T00:44:47;100160.91;;;21.09;100.00
46087;BME280;31824;49.648;8.640;2023-06-26T00:47:53;100157.06;;;20.68;100.00
46087;BME280;31824;49.648;8.640;2023-06-26T00:51:04;100164.03;;;20.48;100.00
46087;BME280;31824;49.648;8.640;2023-06-26T00:54:09;100155.81;;;20.61;100.00
46087;BME280;31824;49.648;8.640;2023-06-26T01:01:09;100152.91;;;20.73;100.00
46087;BME280;31824;49.648;8.640;2023-06-26T01:19:59;100129.34;;;20.48;100.00
46087;BME280;31824;49.648;8.640;2023-06-26T01:23:12;100125.69;;;20.46;100.00
46087;BME280;31824;49.648;8.640;2023-06-26T01:26:22;100122.94;;;20.44;100.00
46087;BME280;31824;49.648;8.640;2023-06-26T01:29:26;100113.91;;;20.24;100.00
46087;BME280;31824;49.648;8.640;2023-06-26T01:32:34;100119.84;;;20.18;100.00
46087;BME280;31824;49.648;8.640;2023-06-26T01:35:40;100114.88;;;20.26;100.00
46087;BME280;31824;49.648;8.640;2023-06-26T01:38:45;100111.91;;;20.20;100.00
46087;BME280;31824;49.648;8.640;2023-06-26T01:41:53;100112.16;;;20.08;100.00
46087;BME280;31824;49.648;8.640;2023-06-26T01:45:26;100109.19;;;20.02;100.00
46087;BME280;31824;49.648;8.640;2023-06-26T01:48:40;100107.84;;;19.94;100.00
46087;BME280;31824;49.648;8.640;2023-06-26T01:51:54;100103.34;;;19.76;100.00
46087;BME280;31824;49.648;8.640;2023-06-26T01:55:01;100107.94;;;19.79;100.00
46087;BME280;31824;49.648;8.640;2023-06-26T01:58:07;100111.06;;;19.71;100.00
46087;BME280;31824;49.648;8.640;2023-06-26T02:01:13;100105.50;;;19.67;100.00
46087;BME280;31824;49.648;8.640;2023-06-26T02:04:22;100101.50;;;19.59;100.00
46087;BME280;31824;49.648;8.640;2023-06-26T02:32:21;100117.56;;;19.27;100.00
46087;BME280;31824;49.648;8.640;2023-06-26T02:35:31;100116.25;;;19.52;100.00
46087;BME280;31824;49.648;8.640;2023-06-26T02:38:46;100111.06;;;19.38;100.00
46087;BME280;31824;49.648;8.640;2023-06-26T02:42:17;100128.41;;;19.63;100.00
46087;BME280;31824;49.648;8.640;2023-06-26T02:45:52;100119.50;;;20.12;100.00
46087;BME280;31824;49.648;8.640;2023-06-26T02:48:59;100121.91;;;19.58;100.00
46087;BME280;31824;49.648;8.640;2023-06-26T02:52:04;100120.09;;;19.57;100.00
46087;BME280;31824;49.648;8.640;2023-06-26T02:55:34;100123.63;;;19.41;100.00
46087;BME280;31824;49.648;8.640;2023-06-26T02:59:02;100128.38;;;19.30;100.00
46087;BME280;31824;49.648;8.640;2023-06-26T03:02:54;100138.44;;;19.04;100.00
46087;BME280;31824;49.648;8.640;2023-06-26T03:06:02;100132.69;;;18.97;100.00
46087;BME280;31824;49.648;8.640;2023-06-26T03:09:59;100133.66;;;19.14;100.00
46087;BME280;31824;49.648;8.640;2023-06-26T03:13:36;100133.00;;;18.56;100.00
46087;BME280;31824;49.648;8.640;2023-06-26T03:17:07;100129.88;;;18.49;100.00
46087;BME280;31824;49.648;8.640;2023-06-26T03:21:27;100135.72;;;18.73;100.00
46087;BME280;31824;49.648;8.640;2023-06-26T03:25:21;100136.28;;;18.82;100.00
46087;BME280;31824;49.648;8.640;2023-06-26T03:29:04;100139.19;;;18.72;100.00
46087;BME280;31824;49.648;8.640;2023-06-26T03:32:18;100138.03;;;18.52;100.00
46087;BME280;31824;49.648;8.640;2023-06-26T03:35:28;100136.56;;;18.57;100.00
46087;BME280;31824;49.648;8.640;2023-06-26T03:38:36;100141.97;;;18.59;100.00
46087;BME280;31824;49.648;8.640;2023-06-26T03:41:40;100140.59;;;18.50;100.00
46087;BME280;31824;49.648;8.640;2023-06-26T03:45:04;100135.66;;;18.56;100.00
46087;BME280;31824;49.648;8.640;2023-06-26T03:48:09;100135.09;;;18.47;100.00
46087;BME280;31824;49.648;8.640;2023-06-26T03:51:19;100130.50;;;18.45;100.00
46087;BME280;31824;49.648;8.640;2023-06-26T03:54:26;100134.00;;;18.44;100.00
46087;BME280;31824;49.648;8.640;2023-06-26T03:58:00;100129.88;;;18.49;100.00
46087;BME280;31824;49.648;8.640;2023-06-26T04:01:10;100136.94;;;18.63;100.00
46087;BME280;31824;49.648;8.640;2023-06-26T04:04:40;100137.44;;;18.72;100.00
46087;BME280;31824;49.648;8.640;2023-06-26T04:07:52;100140.31;;;18.31;100.00
46087;BME280;31824;49.648;8.640;2023-06-26T04:11:03;100147.56;;;18.18;100.00
46087;BME280;31824;49.648;8.640;2023-06-26T04:14:09;100150.28;;;18.05;100.00
46087;BME280;31824;49.648;8.640;2023-06-26T04:17:13;100151.59;;;18.12;100.00
46087;BME280;31824;49.648;8.640;2023-06-26T04:20:18;100154.44;;;18.30;100.00
46087;BME280;31824;49.648;8.640;2023-06-26T04:23:50;100148.34;;;18.02;100.00
46087;BME280;31824;49.648;8.640;2023-06-26T04:26:57;100151.59;;;18.12;100.00
46087;BME280;31824;49.648;8.640;2023-06-26T04:30:03;100151.59;;;18.27;100.00
46087;BME280;31824;49.648;8.640;2023-06-26T04:33:06;100146.06;;;18.23;100.00
46087;BME280;31824;49.648;8.640;2023-06-26T04:36:11;100147.28;;;18.29;100.00
46087;BME280;31824;49.648;8.640;2023-06-26T04:39:14;100138.72;;;18.19;100.00
46087;BME280;31824;49.648;8.640;2023-06-26T04:42:46;100137.47;;;18.28;100.00
46087;BME280;31824;49.648;8.640;2023-06-26T04:46:17;100136.47;;;18.41;100.00
46087;BME280;31824;49.648;8.640;2023-06-26T04:49:20;100141.31;;;18.63;100.00
46087;BME280;31824;49.648;8.640;2023-06-26T04:52:53;100137.47;;;18.58;100.00
46087;BME280;31824;49.648;8.640;2023-06-26T04:55:56;100144.03;;;18.04;100.00
46087;BME280;31824;49.648;8.640;2023-06-26T04:59:04;100141.19;;;18.01;100.00
46087;BME280;31824;49.648;8.640;2023-06-26T05:02:37;100147.56;;;18.33;100.00
46087;BME280;31824;49.648;8.640;2023-06-26T05:05:41;100148.47;;;18.19;100.00
46087;BME280;31824;49.648;8.640;2023-06-26T05:08:49;100146.63;;;18.63;100.00
46087;BME280;31824;49.648;8.640;2023-06-26T05:11:52;100142.25;;;18.48;100.00
46087;BME280;31824;49.648;8.640;2023-06-26T05:14:59;100142.19;;;18.47;100.00
46087;BME280;31824;49.648;8.640;2023-06-26T05:18:03;100144.81;;;18.32;100.00
46087;BME280;31824;49.648;8.640;2023-06-26T05:21:08;100132.16;;;18.43;100.00
46087;BME280;31824;49.648;8.640;2023-06-26T05:24:41;100134.91;;;18.74;100.00
46087;BME280;31824;49.648;8.640;2023-06-26T05:27:49;100135.25;;;18.80;100.00
46087;BME280;31824;49.648;8.640;2023-06-26T05:31:22;100141.94;;;18.73;100.00
46087;BME280;31824;49.648;8.640;2023-06-26T05:34:27;100147.91;;;18.84;100.00
46087;BME280;31824;49.648;8.640;2023-06-26T05:37:32;100143.41;;;18.98;100.00
46087;BME280;31824;49.648;8.640;2023-06-26T05:41:02;100150.28;;;19.10;100.00
46087;BME280;31824;49.648;8.640;2023-06-26T05:44:06;100149.97;;;19.20;100.00
46087;BME280;31824;49.648;8.640;2023-06-26T05:47:10;100151.41;;;19.61;100.00
46087;BME280;31824;49.648;8.640;2023-06-26T05:50:16;100156.09;;;19.98;100.00
46087;BME280;31824;49.648;8.640;2023-06-26T05:53:28;100158.00;;;20.17;100.00
46087;BME280;31824;49.648;8.640;2023-06-26T05:56:34;100157.25;;;20.20;100.00
46087;BME280;31824;49.648;8.640;2023-06-26T05:59:54;100152.47;;;20.31;100.00
46087;BME280;31824;49.648;8.640;2023-06-26T06:03:27;100153.28;;;20.46;100.00
46087;BME280;31824;49.648;8.640;2023-06-26T06:06:36;100152.63;;;20.34;100.00
46087;BME280;31824;49.648;8.640;2023-06-26T06:09:44;100146.41;;;20.33;100.00
46087;BME280;31824;49.648;8.640;2023-06-26T06:12:50;100143.75;;;20.51;100.00
46087;BME280;31824;49.648;8.640;2023-06-26T06:17:44;100157.88;;;21.19;100.00
46087;BME280;31824;49.648;8.640;2023-06-26T06:28:05;100155.59;;;22.23;100.00
46087;BME280;31824;49.648;8.640;2023-06-26T06:39:44;100155.88;;;22.70;100.00
46087;BME280;31824;49.648;8.640;2023-06-26T06:42:45;100149.22;;;22.61;100.00
46087;BME280;31824;49.648;8.640;2023-06-26T06:45:49;100144.72;;;22.81;100.00
46087;BME280;31824;49.648;8.640;2023-06-26T06:48:50;100152.50;;;22.74;100.00
46087;BME280;31824;49.648;8.640;2023-06-26T06:52:11;100141.50;;;22.89;100.00
46087;BME280;31824;49.648;8.640;2023-06-26T06:55:13;100144.97;;;23.08;100.00
46087;BME280;31824;49.648;8.640;2023-06-26T06:58:15;100144.41;;;23.38;100.00
46087;BME280;31824;49.648;8.640;2023-06-26T07:01:20;100131.75;;;23.81;100.00
46087;BME280;31824;49.648;8.640;2023-06-26T07:04:22;100134.81;;;23.67;100.00
46087;BME280;31824;49.648;8.640;2023-06-26T07:07:28;100131.69;;;23.79;100.00
46087;BME280;31824;49.648;8.640;2023-06-26T07:10:31;100137.94;;;24.02;100.00
46087;BME280;31824;49.648;8.640;2023-06-26T07:13:32;100143.50;;;24.33;100.00
46087;BME280;31824;49.648;8.640;2023-06-26T07:16:36;100148.03;;;24.59;100.00
46087;BME280;31824;49.648;8.640;2023-06-26T07:19:38;100134.91;;;24.93;100.00
46087;BME280;31824;49.648;8.640;2023-06-26T07:22:43;100148.03;;;25.11;100.00
46087;BME280;31824;49.648;8.640;2023-06-26T07:25:49;100134.38;;;25.05;100.00
46087;BME280;31824;49.648;8.640;2023-06-26T07:28:50;100136.25;;;25.07;100.00
46087;BME280;31824;49.648;8.640;2023-06-26T07:31:54;100140.63;;;25.04;100.00
46087;BME280;31824;49.648;8.640;2023-06-26T07:34:55;100135.94;;;25.25;100.00
46087;BME280;31824;49.648;8.640;2023-06-26T07:37:58;100135.28;;;25.33;100.00
46087;BME280;31824;49.648;8.640;2023-06-26T07:41:00;100141.06;;;25.45;100.00
46087;BME280;31824;49.648;8.640;2023-06-26T07:44:02;100137.34;;;25.70;100.00
46087;BME280;31824;49.648;8.640;2023-06-26T07:47:05;100134.47;;;25.64;100.00
46087;BME280;31824;49.648;8.640;2023-06-26T07:50:08;100138.59;;;25.82;100.00
46087;BME280;31824;49.648;8.640;2023-06-26T07:53:10;100139.97;;;25.98;100.00
46087;BME280;31824;49.648;8.640;2023-06-26T07:56:11;100144.94;;;25.85;100.00
46087;BME280;31824;49.648;8.640;2023-06-26T07:59:14;100136.25;;;25.94;100.00
46087;BME280;31824;49.648;8.640;2023-06-26T08:29:09;100161.91;;;26.75;100.00
46087;BME280;31824;49.648;8.640;2023-06-26T08:32:13;100149.94;;;26.66;100.00
46087;BME280;31824;49.648;8.640;2023-06-26T08:35:15;100162.25;;;26.89;100.00
46087;BME280;31824;49.648;8.640;2023-06-26T08:38:18;100151.13;;;26.75;100.00
46087;BME280;31824;49.648;8.640;2023-06-26T08:41:23;100156.44;;;27.45;100.00
46087;BME280;31824;49.648;8.640;2023-06-26T08:44:28;100163.19;;;27.66;100.00
46087;BME280;31824;49.648;8.640;2023-06-26T08:47:30;100156.28;;;27.38;100.00
46087;BME280;31824;49.648;8.640;2023-06-26T08:50:35;100171.84;;;27.51;100.00
46087;BME280;31824;49.648;8.640;2023-06-26T08:53:43;100160.75;;;27.77;100.00
46087;BME280;31824;49.648;8.640;2023-06-26T08:56:49;100166.03;;;28.12;100.00
46087;BME280;31824;49.648;8.640;2023-06-26T08:59:53;100172.19;;;28.05;100.00
46087;BME280;31824;49.648;8.640;2023-06-26T09:02:56;100173.34;;;28.18;100.00
46087;BME280;31824;49.648;8.640;2023-06-26T09:05:59;100180.31;;;27.67;100.00
46087;BME280;31824;49.648;8.640;2023-06-26T09:09:01;100176.03;;;27.76;100.00
46087;BME280;31824;49.648;8.640;2023-06-26T09:12:04;100172.78;;;27.93;100.00
46087;BME280;31824;49.648;8.640;2023-06-26T09:15:08;100187.03;;;27.86;100.00
46087;BME280;31824;49.648;8.640;2023-06-26T09:18:10;100177.56;;;28.03;100.00
46087;BME280;31824;49.648;8.640;2023-06-26T09:21:12;100169.59;;;28.11;100.00
46087;BME280;31824;49.648;8.640;2023-06-26T09:24:14;100173.31;;;27.75;100.00
46087;BME280;31824;49.648;8.640;2023-06-26T09:27:17;100168.31;;;27.93;100.00
46087;BME280;31824;49.648;8.640;2023-06-26T09:30:21;100178.56;;;28.08;100.00
46087;BME280;31824;49.648;8.640;2023-06-26T09:33:23;100176.78;;;28.09;100.00
46087;BME280;31824;49.648;8.640;2023-06-26T09:36:28;100173.50;;;28.25;100.00
46087;BME280;31824;49.648;8.640;2023-06-26T09:39:30;100182.28;;;28.15;100.00
46087;BME280;31824;49.648;8.640;2023-06-26T09:42:32;100181.72;;;27.89;100.00
46087;BME280;31824;49.648;8.640;2023-06-26T09:45:36;100177.66;;;28.08;100.00
46087;BME280;31824;49.648;8.640;2023-06-26T09:48:38;100171.00;;;28.35;100.00
46087;BME280;31824;49.648;8.640;2023-06-26T09:51:41;100173.66;;;28.33;100.00
46087;BME280;31824;49.648;8.640;2023-06-26T09:54:43;100168.34;;;28.38;100.00
46087;BME280;31824;49.648;8.640;2023-06-26T09:57:47;100180.19;;;28.93;100.00
46087;BME280;31824;49.648;8.640;2023-06-26T10:00:51;100174.50;;;29.27;100.00
46087;BME280;31824;49.648;8.640;2023-06-26T10:03:54;100176.97;;;29.14;100.00
46087;BME280;31824;49.648;8.640;2023-06-26T10:07:02;100184.91;;;29.60;100.00
46087;BME280;31824;49.648;8.640;2023-06-26T10:10:07;100181.44;;;29.69;100.00
46087;BME280;31824;49.648;8.640;2023-06-26T10:13:16;100184.25;;;29.19;100.00
46087;BME280;31824;49.648;8.640;2023-06-26T10:16:24;100184.28;;;29.22;100.00
46087;BME280;31824;49.648;8.640;2023-06-26T10:19:28;100183.75;;;28.89;100.00
46087;BME280;31824;49.648;8.640;2023-06-26T10:22:43;100185.81;;;29.04;100.00
46087;BME280;31824;49.648;8.640;2023-06-26T10:25:48;100198.03;;;28.80;100.00
46087;BME280;31824;49.648;8.640;2023-06-26T10:28:55;100207.84;;;28.75;100.00
46087;BME280;31824;49.648;8.640;2023-06-26T10:32:00;100206.13;;;28.80;100.00
46087;BME280;31824;49.648;8.640;2023-06-26T10:35:07;100212.25;;;28.72;100.00
46087;BME280;31824;49.648;8.640;2023-06-26T10:38:09;100210.13;;;28.55;100.00
46087;BME280;31824;49.648;8.640;2023-06-26T10:41:13;100217.00;;;28.39;100.00
46087;BME280;31824;49.648;8.640;2023-06-26T10:44:17;100227.78;;;28.38;100.00
46087;BME280;31824;49.648;8.640;2023-06-26T10:47:31;100219.63;;;28.35;100.00
46087;BME280;31824;49.648;8.640;2023-06-26T10:50:34;100214.53;;;28.52;100.00
46087;BME280;31824;49.648;8.640;2023-06-26T10:53:37;100214.38;;;28.42;100.00
46087;BME280;31824;49.648;8.640;2023-06-26T10:56:43;100200.34;;;28.18;100.00
46087;BME280;31824;49.648;8.640;2023-06-26T10:59:46;100199.69;;;28.29;100.00
46087;BME280;31824;49.648;8.640;2023-06-26T11:02:50;100208.06;;;28.43;100.00
46087;BME280;31824;49.648;8.640;2023-06-26T11:06:10;100209.00;;;28.44;100.00
46087;BME280;31824;49.648;8.640;2023-06-26T11:09:17;100208.66;;;28.28;100.00
46087;BME280;31824;49.648;8.640;2023-06-26T11:12:35;100193.38;;;28.27;100.00
46087;BME280;31824;49.648;8.640;2023-06-26T11:15:38;100194.03;;;28.61;100.00
46087;BME280;31824;49.648;8.640;2023-06-26T11:18:44;100185.97;;;29.15;100.00
46087;BME280;31824;49.648;8.640;2023-06-26T11:21:46;100196.16;;;28.78;100.00
46087;BME280;31824;49.648;8.640;2023-06-26T11:24:53;100186.78;;;29.08;100.00
46087;BME280;31824;49.648;8.640;2023-06-26T11:27:55;100180.34;;;29.58;100.00
46087;BME280;31824;49.648;8.640;2023-06-26T11:30:57;100188.47;;;29.58;100.00
46087;BME280;31824;49.648;8.640;2023-06-26T11:34:02;100201.41;;;29.79;100.00
46087;BME280;31824;49.648;8.640;2023-06-26T11:37:05;100196.25;;;29.94;100.00
46087;BME280;31824;49.648;8.640;2023-06-26T11:40:18;100198.41;;;29.59;100.00
46087;BME280;31824;49.648;8.640;2023-06-26T11:43:22;100208.66;;;29.23;100.00
46087;BME280;31824;49.648;8.640;2023-06-26T11:46:24;100193.25;;;29.18;100.00
46087;BME280;31824;49.648;8.640;2023-06-26T11:49:28;100194.19;;;29.78;100.00
46087;BME280;31824;49.648;8.640;2023-06-26T11:52:32;100191.75;;;29.93;100.00
46087;BME280;31824;49.648;8.640;2023-06-26T11:55:40;100203.97;;;29.68;100.00
46087;BME280;31824;49.648;8.640;2023-06-26T11:58:55;100205.44;;;29.44;100.00
46087;BME280;31824;49.648;8.640;2023-06-26T12:01:57;100203.19;;;29.19;100.00
46087;BME280;31824;49.648;8.640;2023-06-26T12:05:02;100197.59;;;29.08;100.00
46087;BME280;31824;49.648;8.640;2023-06-26T12:08:05;100194.88;;;29.06;100.00
46087;BME280;31824;49.648;8.640;2023-06-26T12:11:08;100190.56;;;29.19;100.00
46087;BME280;31824;49.648;8.640;2023-06-26T12:14:11;100185.31;;;29.27;100.00
46087;BME280;31824;49.648;8.640;2023-06-26T12:17:14;100184.16;;;29.16;100.00
46087;BME280;31824;49.648;8.640;2023-06-26T12:20:22;100187.88;;;29.21;100.00
46087;BME280;31824;49.648;8.640;2023-06-26T12:23:32;100189.88;;;29.31;100.00
46087;BME280;31824;49.648;8.640;2023-06-26T12:26:37;100186.41;;;29.41;100.00
46087;BME280;31824;49.648;8.640;2023-06-26T12:29:41;100181.63;;;29.83;100.00
46087;BME280;31824;49.648;8.640;2023-06-26T12:32:46;100182.59;;;29.85;100.00
46087;BME280;31824;49.648;8.640;2023-06-26T12:35:50;100193.16;;;29.68;100.00
46087;BME280;31824;49.648;8.640;2023-06-26T12:38:53;100194.88;;;29.63;100.00
46087;BME280;31824;49.648;8.640;2023-06-26T12:41:57;100184.50;;;29.92;100.00
46087;BME280;31824;49.648;8.640;2023-06-26T12:45:12;100187.75;;;30.37;100.00
46087;BME280;31824;49.648;8.640;2023-06-26T12:48:36;100197.72;;;30.40;100.00
46087;BME280;31824;49.648;8.640;2023-06-26T12:51:40;100204.22;;;30.54;100.00
46087;BME280;31824;49.648;8.640;2023-06-26T12:54:43;100196.03;;;30.48;100.00
46087;BME280;31824;49.648;8.640;2023-06-26T12:57:45;100203.31;;;30.52;100.00
46087;BME280;31824;49.648;8.640;2023-06-26T13:00:47;100189.78;;;30.55;100.00
46087;BME280;31824;49.648;8.640;2023-06-26T13:03:49;100200.72;;;30.64;100.00
46087;BME280;31824;49.648;8.640;2023-06-26T13:06:54;100195.41;;;30.74;100.00
46087;BME280;31824;49.648;8.640;2023-06-26T13:09:57;100181.63;;;30.51;100.00
46087;BME280;31824;49.648;8.640;2023-06-26T13:12:59;100188.16;;;30.71;100.00
46087;BME280;31824;49.648;8.640;2023-06-26T13:16:02;100186.56;;;30.98;100.00
46087;BME280;31824;49.648;8.640;2023-06-26T13:19:06;100199.03;;;30.77;100.00
46087;BME280;31824;49.648;8.640;2023-06-26T13:22:10;100189.28;;;30.96;100.00
46087;BME280;31824;49.648;8.640;2023-06-26T13:25:12;100196.31;;;30.76;100.00
46087;BME280;31824;49.648;8.640;2023-06-26T13:28:14;100190.44;;;30.36;100.00
46087;BME280;31824;49.648;8.640;2023-06-26T13:31:16;100208.41;;;31.07;100.00
46087;BME280;31824;49.648;8.640;2023-06-26T13:34:20;100193.19;;;30.39;100.00
46087;BME280;31824;49.648;8.640;2023-06-26T13:37:25;100205.50;;;30.89;100.00
46087;BME280;31824;49.648;8.640;2023-06-26T13:40:27;100207.59;;;31.16;100.00
46087;BME280;31824;49.648;8.640;2023-06-26T13:43:29;100216.41;;;30.96;100.00
46087;BME280;31824;49.648;8.640;2023-06-26T13:46:32;100214.28;;;30.64;100.00
46087;BME280;31824;49.648;8.640;2023-06-26T13:49:34;100212.31;;;30.50;100.00
46087;BME280;31824;49.648;8.640;2023-06-26T13:52:37;100199.75;;;30.58;100.00
46087;BME280;31824;49.648;8.640;2023-06-26T13:55:40;100205.38;;;30.76;100.00
46087;BME280;31824;49.648;8.640;2023-06-26T13:58:42;100213.28;;;30.53;100.00
46087;BME280;31824;49.648;8.640;2023-06-26T14:01:45;100208.03;;;30.75;100.00
46087;BME280;31824;49.648;8.640;2023-06-26T14:04:47;100220.38;;;30.45;100.00
46087;BME280;31824;49.648;8.640;2023-06-26T14:07:50;100228.59;;;30.50;100.00
46087;BME280;31824;49.648;8.640;2023-06-26T14:10:54;100226.78;;;30.50;100.00
46087;BME280;31824;49.648;8.640;2023-06-26T14:13:56;100229.81;;;30.06;100.00
46087;BME280;31824;49.648;8.640;2023-06-26T14:16:58;100223.34;;;29.96;100.00
46087;BME280;31824;49.648;8.640;2023-06-26T14:20:01;100229.28;;;30.36;100.00
46087;BME280;31824;49.648;8.640;2023-06-26T14:23:05;100233.56;;;30.17;100.00
46087;BME280;31824;49.648;8.640;2023-06-26T14:26:07;100227.38;;;29.66;100.00
46087;BME280;31824;49.648;8.640;2023-06-26T14:29:10;100239.69;;;29.44;100.00
46087;BME280;31824;49.648;8.640;2023-06-26T14:32:12;100243.63;;;29.11;100.00
46087;BME280;31824;49.648;8.640;2023-06-26T14:35:14;100244.25;;;28.96;100.00
46087;BME280;31824;49.648;8.640;2023-06-26T14:38:17;100242.91;;;29.21;100.00
46087;BME280;31824;49.648;8.640;2023-06-26T14:41:21;100241.84;;;29.13;100.00
46087;BME280;31824;49.648;8.640;2023-06-26T14:44:24;100251.63;;;29.55;100.00
46087;BME280;31824;49.648;8.640;2023-06-26T14:47:27;100252.56;;;29.60;100.00
46087;BME280;31824;49.648;8.640;2023-06-26T14:50:29;100252.69;;;29.67;100.00
46087;BME280;31824;49.648;8.640;2023-06-26T14:53:32;100239.47;;;29.85;100.00
46087;BME280;31824;49.648;8.640;2023-06-26T14:56:34;100240.72;;;30.13;100.00
46087;BME280;31824;49.648;8.640;2023-06-26T14:59:36;100269.09;;;29.76;100.00
46087;BME280;31824;49.648;8.640;2023-06-26T15:02:38;100242.41;;;29.44;100.00
46087;BME280;31824;49.648;8.640;2023-06-26T15:05:40;100252.19;;;29.36;100.00
46087;BME280;31824;49.648;8.640;2023-06-26T15:08:44;100247.78;;;29.42;100.00
46087;BME280;31824;49.648;8.640;2023-06-26T15:11:46;100256.44;;;29.21;100.00
46087;BME280;31824;49.648;8.640;2023-06-26T15:14:49;100239.34;;;28.75;100.00
46087;BME280;31824;49.648;8.640;2023-06-26T15:17:53;100241.09;;;29.20;100.00
46087;BME280;31824;49.648;8.640;2023-06-26T15:21:16;100248.19;;;29.69;100.00
46087;BME280;31824;49.648;8.640;2023-06-26T15:24:20;100247.34;;;29.71;100.00
46087;BME280;31824;49.648;8.640;2023-06-26T15:27:22;100269.09;;;29.24;100.00
46087;BME280;31824;49.648;8.640;2023-06-26T15:30:26;100261.78;;;29.70;100.00
46087;BME280;31824;49.648;8.640;2023-06-26T15:33:28;100267.25;;;29.21;100.00
46087;BME280;31824;49.648;8.640;2023-06-26T15:36:31;100274.34;;;29.14;100.00
46087;BME280;31824;49.648;8.640;2023-06-26T15:39:34;100272.22;;;29.47;100.00
46087;BME280;31824;49.648;8.640;2023-06-26T15:42:45;100275.00;;;29.52;100.00
46087;BME280;31824;49.648;8.640;2023-06-26T15:45:47;100270.47;;;29.51;94.31
46087;BME280;31824;49.648;8.640;2023-06-26T15:48:49;100260.53;;;29.51;97.11
46087;BME280;31824;49.648;8.640;2023-06-26T15:51:52;100269.34;;;29.36;94.55
46087;BME280;31824;49.648;8.640;2023-06-26T15:54:58;100268.38;;;29.33;91.17
46087;BME280;31824;49.648;8.640;2023-06-26T15:58:00;100277.41;;;29.35;100.00
46087;BME280;31824;49.648;8.640;2023-06-26T16:01:02;100275.38;;;29.21;85.86
46087;BME280;31824;49.648;8.640;2023-06-26T16:04:05;100275.09;;;29.07;82.12
46087;BME280;31824;49.648;8.640;2023-06-26T16:07:07;100271.16;;;29.37;84.06
46087;BME280;31824;49.648;8.640;2023-06-26T16:10:11;100286.06;;;29.67;86.30
46087;BME280;31824;49.648;8.640;2023-06-26T16:13:14;100295.69;;;29.48;77.51
46087;BME280;31824;49.648;8.640;2023-06-26T16:16:17;100288.97;;;28.77;74.56
46087;BME280;31824;49.648;8.640;2023-06-26T16:19:20;100280.44;;;29.03;75.92
46087;BME280;31824;49.648;8.640;2023-06-26T16:22:22;100275.81;;;29.44;79.32
46087;BME280;31824;49.648;8.640;2023-06-26T16:25:25;100270.19;;;28.85;70.32
46087;BME280;31824;49.648;8.640;2023-06-26T16:28:27;100268.41;;;28.87;73.51
46087;BME280;31824;49.648;8.640;2023-06-26T16:31:29;100274.81;;;28.92;73.30
46087;BME280;31824;49.648;8.640;2023-06-26T16:34:31;100275.69;;;29.38;78.43
46087;BME280;31824;49.648;8.640;2023-06-26T16:37:33;100282.06;;;29.40;72.95
46087;BME280;31824;49.648;8.640;2023-06-26T16:40:36;100274.28;;;29.11;75.51
46087;BME280;31824;49.648;8.640;2023-06-26T16:43:39;100281.63;;;28.70;75.24
46087;BME280;31824;49.648;8.640;2023-06-26T16:46:42;100280.03;;;28.81;75.97
46087;BME280;31824;49.648;8.640;2023-06-26T16:49:44;100285.31;;;28.75;76.96
46087;BME280;31824;49.648;8.640;2023-06-26T16:53:05;100290.03;;;28.85;73.93
46087;BME280;31824;49.648;8.640;2023-06-26T16:56:09;100287.09;;;28.73;77.40
46087;BME280;31824;49.648;8.640;2023-06-26T16:59:11;100280.06;;;28.40;75.22
46087;BME280;31824;49.648;8.640;2023-06-26T17:02:13;100289.66;;;28.68;82.70
46087;BME280;31824;49.648;8.640;2023-06-26T17:05:15;100285.31;;;28.32;81.42
46087;BME280;31824;49.648;8.640;2023-06-26T17:08:17;100291.38;;;28.22;85.87
46087;BME280;31824;49.648;8.640;2023-06-26T17:11:21;100286.34;;;27.61;100.00
46087;BME280;31824;49.648;8.640;2023-06-26T17:14:23;100291.00;;;27.67;100.00
46087;BME280;31824;49.648;8.640;2023-06-26T17:17:25;100300.69;;;27.58;100.00
46087;BME280;31824;49.648;8.640;2023-06-26T17:20:28;100294.19;;;27.17;100.00
46087;BME280;31824;49.648;8.640;2023-06-26T17:23:30;100307.59;;;27.13;100.00
46087;BME280;31824;49.648;8.640;2023-06-26T17:26:33;100311.91;;;27.07;100.00
46087;BME280;31824;49.648;8.640;2023-06-26T17:29:36;100307.81;;;26.89;100.00
46087;BME280;31824;49.648;8.640;2023-06-26T17:32:38;100313.22;;;26.59;100.00
46087;BME280;31824;49.648;8.640;2023-06-26T17:35:40;100320.88;;;26.74;100.00
46087;BME280;31824;49.648;8.640;2023-06-26T17:38:42;100326.91;;;26.67;100.00